Pagina principale
METAR-TAF:

METAR-TAF

Aeroporti :

Şırnak, Turchia

latitudine: 37-21-50N, longitudine: 42-03-36E, altezza: 621 m

Osservazione

Il bollettino è stato emesso 34 minuti fa, alle 05:50 UTC
Vento 4 kt da nord/nord-ovest, variando fra ovest e est/nord-est
Temperature 36°C
Umidità 19%
Pressione 1006 hPa
Visibilità 10 km o più
nessuna nube inferiore a 1500 m e nessun cumulonembo

METAR: LTCV 270550Z 34004KT 270V070 CAVOK 36/09 Q1006

Ora: 09:24 (06:24 UTC)

Previsione

Il bollettino è stato emesso 1 ora e 44 minuti fa, alle 04:40 UTC
Previsione valida dal 27 alle 06 UTC al 27 alle 15 UTC
Vento 8 kt da ovest
Visibilità 10 km o più
nessuna nube inferiore a 1500 m e nessun cumulonembo

TAF: LTCV 270440Z 2706/2715 27008KT CAVOK

Osservazioni e previsioni meteorologiche di più di 4000 aeroporti (messaggi METAR e TAF).

Le stazioni disponibili sono rappresentate dai dischi gialli e rossi sulla carta.

Puntare il mouse per vedere il nome della stazione.

Clicca sopra per visualizzare le osservazioni e previsioni meteorologiche.

Per cambiare la mappa : fare clic sui pulsanti verdi con una croce nera per ingrandire, il pulsante verde con un trattino per diminuire, o sulla freccia verde per le mappe adiacenti.


METAR-TAF: